createdAt,value
2017-03-30T00:00:09.256Z,99.99
2017-03-30T00:01:09.134Z,99.99
2017-03-30T00:02:09.150Z,99.99
2017-03-30T00:03:09.194Z,99.99
2017-03-30T00:04:09.230Z,99.99
2017-03-30T00:05:09.259Z,99.99
2017-03-30T00:06:09.272Z,99.99
2017-03-30T00:07:09.316Z,99.99
2017-03-30T00:08:09.350Z,99.99
2017-03-30T00:09:09.377Z,99.99
2017-03-30T00:10:09.412Z,99.99
2017-03-30T00:11:09.448Z,99.99
2017-03-30T00:12:09.471Z,99.99
2017-03-30T00:13:09.504Z,99.99
2017-03-30T00:14:09.542Z,99.99
2017-03-30T00:15:09.572Z,99.99
2017-03-30T00:16:09.600Z,99.99
2017-03-30T00:17:09.631Z,99.99
2017-03-30T00:18:09.656Z,99.99
2017-03-30T00:19:09.695Z,99.99
2017-03-30T00:20:09.727Z,99.99
2017-03-30T00:21:09.755Z,99.99
2017-03-30T00:22:09.795Z,99.99
2017-03-30T00:23:09.822Z,99.99
2017-03-30T00:24:09.850Z,99.99
2017-03-30T00:25:09.884Z,99.99
2017-03-30T00:26:09.915Z,99.99
2017-03-30T00:27:09.931Z,99.99
2017-03-30T00:28:09.984Z,99.99
2017-03-30T00:29:10.013Z,99.99
2017-03-30T00:30:10.046Z,99.99
2017-03-30T00:31:10.058Z,99.99
2017-03-30T00:32:10.097Z,99.99
2017-03-30T00:33:10.138Z,99.99
2017-03-30T00:34:10.166Z,99.99
2017-03-30T00:35:10.201Z,99.99
2017-03-30T00:36:10.235Z,99.99
2017-03-30T00:37:10.260Z,99.99
2017-03-30T00:38:10.294Z,99.99
2017-03-30T00:39:10.323Z,99.99
2017-03-30T00:40:10.454Z,99.99
2017-03-30T00:41:10.384Z,99.99
2017-03-30T00:42:10.415Z,99.99
2017-03-30T00:43:10.454Z,99.99
2017-03-30T00:44:10.481Z,99.99
2017-03-30T00:45:10.660Z,99.99
2017-03-30T00:46:10.544Z,99.99
2017-03-30T00:47:10.580Z,99.99
2017-03-30T00:48:10.608Z,99.99
2017-03-30T00:49:10.639Z,99.99
2017-03-30T00:50:10.664Z,99.99
2017-03-30T00:51:10.695Z,99.99
2017-03-30T00:52:10.732Z,99.99
2017-03-30T00:53:10.746Z,99.99
2017-03-30T00:54:10.794Z,99.99
2017-03-30T00:55:10.831Z,99.99
2017-03-30T00:56:10.856Z,99.99
2017-03-30T00:57:10.889Z,99.99
2017-03-30T00:58:10.920Z,99.99
2017-03-30T00:59:10.955Z,99.99
2017-03-30T01:00:10.982Z,99.99
2017-03-30T01:01:10.994Z,99.99
2017-03-30T01:02:11.052Z,99.99
2017-03-30T01:03:11.076Z,99.99
2017-03-30T01:04:11.104Z,99.99
2017-03-30T01:05:11.136Z,99.99
2017-03-30T01:06:11.175Z,99.99
2017-03-30T01:07:11.201Z,99.99
2017-03-30T01:08:11.217Z,99.99
2017-03-30T01:09:11.260Z,99.99
2017-03-30T01:10:11.299Z,99.99
2017-03-30T01:11:11.326Z,99.99
2017-03-30T01:12:11.357Z,99.99
2017-03-30T01:13:11.398Z,99.99
2017-03-30T01:14:11.419Z,99.99
2017-03-30T01:15:11.454Z,99.99
2017-03-30T01:16:11.468Z,99.99
2017-03-30T01:17:11.515Z,99.99
2017-03-30T01:18:11.546Z,99.99
2017-03-30T01:19:11.580Z,99.99
2017-03-30T01:20:11.607Z,99.99
2017-03-30T01:21:11.638Z,99.99
2017-03-30T01:22:11.669Z,99.99
2017-03-30T01:23:11.700Z,99.99
2017-03-30T01:24:11.736Z,99.99
2017-03-30T01:25:11.771Z,99.99
2017-03-30T01:26:11.788Z,99.99
2017-03-30T01:27:11.829Z,99.99
2017-03-30T01:28:11.857Z,99.99
2017-03-30T01:29:11.897Z,99.99
2017-03-30T01:30:11.906Z,99.99
2017-03-30T01:31:11.952Z,99.99
2017-03-30T01:32:11.987Z,99.99
2017-03-30T01:33:12.017Z,99.99
2017-03-30T01:34:12.041Z,99.99
2017-03-30T01:35:12.076Z,99.99
2017-03-30T01:36:12.110Z,99.99
2017-03-30T01:37:12.144Z,99.99
2017-03-30T01:38:12.158Z,99.99
2017-03-30T01:39:12.205Z,99.99
2017-03-30T01:40:12.237Z,99.99
2017-03-30T01:41:12.269Z,99.99
2017-03-30T01:42:12.291Z,99.99
2017-03-30T01:43:12.329Z,99.99
2017-03-30T01:44:12.362Z,99.99
2017-03-30T01:45:12.396Z,99.99
2017-03-30T01:46:12.423Z,99.99
2017-03-30T01:47:12.452Z,99.99
2017-03-30T01:48:12.486Z,99.99
2017-03-30T01:49:12.515Z,99.99
2017-03-30T01:50:12.566Z,99.99
2017-03-30T01:51:12.582Z,99.99
2017-03-30T01:52:12.629Z,99.99
2017-03-30T01:53:12.641Z,99.99
2017-03-30T01:54:12.681Z,99.99
2017-03-30T01:55:12.702Z,99.99
2017-03-30T01:56:12.733Z,99.99
2017-03-30T01:57:12.768Z,99.99
2017-03-30T01:58:12.798Z,99.99
2017-03-30T01:59:12.831Z,99.99
2017-03-30T02:00:12.994Z,99.99
2017-03-30T02:01:12.881Z,99.99
2017-03-30T02:02:12.922Z,99.99
2017-03-30T02:03:12.955Z,99.99
2017-03-30T02:04:12.985Z,99.99
2017-03-30T02:05:13.020Z,99.99
2017-03-30T02:06:13.051Z,99.99
2017-03-30T02:07:13.121Z,99.99
2017-03-30T02:08:13.118Z,99.99
2017-03-30T02:09:13.146Z,99.99
2017-03-30T02:10:13.178Z,99.99
2017-03-30T02:11:13.208Z,99.99
2017-03-30T02:12:13.234Z,99.99
2017-03-30T02:13:13.273Z,99.99
2017-03-30T02:14:13.300Z,99.99
2017-03-30T02:15:13.685Z,99.99
2017-03-30T02:16:13.377Z,99.99
2017-03-30T02:17:13.399Z,99.99
2017-03-30T02:18:13.423Z,99.99
2017-03-30T02:19:13.464Z,99.99
2017-03-30T02:20:13.481Z,99.99
2017-03-30T02:21:13.518Z,99.99
2017-03-30T02:22:13.593Z,99.99
2017-03-30T02:23:13.585Z,99.99
2017-03-30T02:24:13.612Z,99.99
2017-03-30T02:25:13.643Z,99.99
2017-03-30T02:26:13.710Z,99.99
2017-03-30T02:27:13.708Z,99.99
2017-03-30T02:28:13.741Z,99.99
2017-03-30T02:29:13.774Z,99.99
2017-03-30T02:30:13.794Z,99.99
2017-03-30T02:31:13.840Z,99.99
2017-03-30T02:32:13.869Z,99.99
2017-03-30T02:33:13.898Z,99.99
2017-03-30T02:34:13.928Z,99.99
2017-03-30T02:35:13.958Z,99.99
2017-03-30T02:36:13.993Z,99.99
2017-03-30T02:37:14.018Z,99.99
2017-03-30T02:38:14.052Z,99.99
2017-03-30T02:39:14.090Z,99.99
2017-03-30T02:40:14.110Z,99.99
2017-03-30T02:41:14.147Z,99.99
2017-03-30T02:42:14.182Z,99.99
2017-03-30T02:43:14.210Z,99.99
2017-03-30T02:44:14.238Z,99.99
2017-03-30T02:45:14.264Z,99.99
2017-03-30T02:46:14.293Z,99.99
2017-03-30T02:47:14.322Z,99.99
2017-03-30T02:48:14.352Z,99.99
2017-03-30T02:49:14.396Z,99.99
2017-03-30T02:50:14.435Z,99.99
2017-03-30T02:51:14.465Z,99.99
2017-03-30T02:52:14.494Z,99.99
2017-03-30T02:53:14.525Z,99.99
2017-03-30T02:54:14.551Z,99.99
2017-03-30T02:55:14.587Z,99.99
2017-03-30T02:56:14.612Z,99.99
2017-03-30T02:57:14.648Z,99.99
2017-03-30T02:58:14.685Z,99.99
2017-03-30T02:59:14.715Z,99.99
2017-03-30T03:00:14.752Z,99.99
2017-03-30T03:01:14.769Z,99.99
2017-03-30T03:02:14.810Z,99.99
2017-03-30T03:03:14.834Z,99.99
2017-03-30T03:04:14.865Z,99.99
2017-03-30T03:05:14.904Z,99.99
2017-03-30T03:06:14.934Z,99.99
2017-03-30T03:07:14.969Z,99.99
2017-03-30T03:08:15.003Z,99.99
2017-03-30T03:09:15.013Z,99.99
2017-03-30T03:10:15.054Z,99.99
2017-03-30T03:11:15.104Z,99.99
2017-03-30T03:12:15.124Z,99.99
2017-03-30T03:13:15.153Z,99.99
2017-03-30T03:14:15.188Z,99.99
2017-03-30T03:15:15.218Z,99.99
2017-03-30T03:16:15.253Z,99.99
2017-03-30T03:17:15.275Z,99.99
2017-03-30T03:18:15.309Z,99.99
2017-03-30T03:19:15.339Z,99.99
2017-03-30T03:20:15.388Z,99.99
2017-03-30T03:21:15.406Z,99.99
2017-03-30T03:22:15.434Z,99.99
2017-03-30T03:23:15.468Z,99.99
2017-03-30T03:24:15.508Z,99.99
2017-03-30T03:25:15.532Z,99.99
2017-03-30T03:26:15.592Z,99.99
2017-03-30T03:27:15.604Z,99.99
2017-03-30T03:28:15.615Z,99.99
2017-03-30T03:29:15.644Z,99.99
2017-03-30T03:30:15.696Z,99.99
2017-03-30T03:31:15.716Z,99.99
2017-03-30T03:32:15.752Z,99.99
2017-03-30T03:33:15.785Z,99.99
2017-03-30T03:34:15.818Z,99.99
2017-03-30T03:35:15.851Z,99.99
2017-03-30T03:36:15.880Z,99.99
2017-03-30T03:37:15.912Z,99.99
2017-03-30T03:38:15.940Z,99.99
2017-03-30T03:39:15.976Z,99.99
2017-03-30T03:40:16.007Z,99.99
2017-03-30T03:41:16.041Z,99.99
2017-03-30T03:42:16.067Z,99.99
2017-03-30T03:43:16.104Z,99.99
2017-03-30T03:44:16.130Z,99.99
2017-03-30T03:45:16.170Z,99.99
2017-03-30T03:46:16.205Z,99.99
2017-03-30T03:47:16.229Z,99.99
2017-03-30T03:48:16.260Z,99.99
2017-03-30T03:49:16.295Z,99.99
2017-03-30T03:50:16.316Z,99.99
2017-03-30T03:51:16.351Z,99.99
2017-03-30T03:52:16.388Z,99.99
2017-03-30T03:53:16.405Z,99.99
2017-03-30T03:54:16.452Z,99.99
2017-03-30T03:55:16.478Z,99.99
2017-03-30T03:56:16.509Z,99.99
2017-03-30T03:57:16.541Z,99.99
2017-03-30T03:58:16.581Z,99.99
2017-03-30T03:59:16.607Z,99.99
2017-03-30T04:00:26.683Z,99.99
2017-03-30T04:01:26.708Z,99.99
2017-03-30T04:02:26.743Z,99.99
2017-03-30T04:03:26.772Z,99.99
2017-03-30T04:04:26.810Z,99.99
2017-03-30T04:05:26.842Z,99.99
2017-03-30T04:06:26.875Z,99.99
2017-03-30T04:07:26.901Z,99.99
2017-03-30T04:08:26.930Z,99.99
2017-03-30T04:09:26.962Z,99.99
2017-03-30T04:10:26.995Z,99.99
2017-03-30T04:11:27.014Z,99.99
2017-03-30T04:12:27.057Z,99.99
2017-03-30T04:13:27.090Z,99.99
2017-03-30T04:14:27.119Z,99.99
2017-03-30T04:15:27.156Z,99.99
2017-03-30T04:16:27.187Z,99.99
2017-03-30T04:17:27.203Z,99.99
2017-03-30T04:18:27.236Z,99.99
2017-03-30T04:19:27.279Z,99.99
2017-03-30T04:20:27.310Z,99.99
2017-03-30T04:21:27.340Z,99.99
2017-03-30T04:22:27.362Z,99.99
2017-03-30T04:23:27.409Z,99.99
2017-03-30T04:24:27.436Z,99.99
2017-03-30T04:25:27.475Z,99.99
2017-03-30T04:26:27.504Z,99.99
2017-03-30T04:27:27.531Z,99.99
2017-03-30T04:28:27.560Z,99.99
2017-03-30T04:29:27.580Z,99.99
2017-03-30T04:30:27.616Z,99.99
2017-03-30T04:31:27.654Z,99.99
2017-03-30T04:32:27.690Z,99.99
2017-03-30T04:33:27.722Z,99.99
2017-03-30T04:34:27.752Z,99.99
2017-03-30T04:35:27.788Z,99.99
2017-03-30T04:36:27.811Z,99.99
2017-03-30T04:37:27.831Z,99.99
2017-03-30T04:38:27.876Z,99.99
2017-03-30T04:39:27.891Z,99.99
2017-03-30T04:40:27.937Z,99.99
2017-03-30T04:41:27.972Z,99.99
2017-03-30T04:42:28.005Z,99.99
2017-03-30T04:43:28.037Z,99.99
2017-03-30T04:44:28.070Z,99.99
2017-03-30T04:45:28.204Z,99.99
2017-03-30T04:46:28.133Z,99.99
2017-03-30T04:47:28.164Z,99.99
2017-03-30T04:48:28.196Z,99.99
2017-03-30T04:49:28.220Z,99.99
2017-03-30T04:50:28.254Z,99.99
2017-03-30T04:51:28.286Z,99.99
2017-03-30T04:52:28.304Z,99.99
2017-03-30T04:53:28.353Z,99.99
2017-03-30T04:54:28.383Z,99.99
2017-03-30T04:55:28.408Z,99.99
2017-03-30T04:56:28.476Z,99.99
2017-03-30T04:57:28.474Z,99.99
2017-03-30T04:58:28.494Z,99.99
2017-03-30T04:59:28.524Z,99.99
2017-03-30T05:00:28.571Z,99.99
2017-03-30T05:01:28.604Z,99.99
2017-03-30T05:02:28.634Z,99.99
2017-03-30T05:03:28.659Z,99.99
2017-03-30T05:04:28.693Z,99.99
2017-03-30T05:05:28.713Z,99.99
2017-03-30T05:06:28.750Z,99.99
2017-03-30T05:07:28.791Z,99.99
2017-03-30T05:08:28.820Z,99.99
2017-03-30T05:09:28.855Z,99.99
2017-03-30T05:10:28.883Z,99.99
2017-03-30T05:11:28.915Z,99.99
2017-03-30T05:12:28.950Z,99.99
2017-03-30T05:13:28.980Z,99.99
2017-03-30T05:14:29.006Z,99.99
2017-03-30T05:15:29.040Z,99.99
2017-03-30T05:16:29.069Z,99.99
2017-03-30T05:17:29.102Z,99.99
2017-03-30T05:18:29.136Z,99.99
2017-03-30T05:19:29.173Z,99.99
2017-03-30T05:20:29.192Z,99.99
2017-03-30T05:21:29.231Z,99.99
2017-03-30T05:22:29.257Z,99.99
2017-03-30T05:23:29.291Z,99.99
2017-03-30T05:24:29.320Z,99.99
2017-03-30T05:25:29.353Z,99.99
2017-03-30T05:26:29.392Z,99.99
2017-03-30T05:27:29.416Z,99.99
2017-03-30T05:28:29.444Z,99.99
2017-03-30T05:29:29.483Z,99.99
2017-03-30T05:30:29.542Z,99.99
2017-03-30T05:31:29.543Z,99.99
2017-03-30T05:32:29.574Z,99.99
2017-03-30T05:33:29.612Z,99.99
2017-03-30T05:34:29.639Z,99.99
2017-03-30T05:35:29.678Z,99.99
2017-03-30T05:36:29.697Z,99.99
2017-03-30T05:37:29.732Z,99.99
2017-03-30T05:38:29.763Z,99.99
2017-03-30T05:39:29.792Z,99.99
2017-03-30T05:40:29.826Z,99.99
2017-03-30T05:41:29.858Z,99.99
2017-03-30T05:42:29.881Z,99.99
2017-03-30T05:43:29.921Z,99.99
2017-03-30T05:44:29.953Z,99.99
2017-03-30T05:45:29.985Z,99.99
2017-03-30T05:46:30.018Z,99.99
2017-03-30T05:47:30.046Z,99.99
2017-03-30T05:48:30.082Z,99.99
2017-03-30T05:49:30.110Z,99.99
2017-03-30T05:50:30.440Z,99.99
2017-03-30T05:51:30.161Z,99.99
2017-03-30T05:52:30.211Z,99.99
2017-03-30T05:53:30.233Z,99.99
2017-03-30T05:54:30.266Z,99.99
2017-03-30T05:55:30.297Z,99.99
2017-03-30T05:56:30.324Z,99.99
2017-03-30T05:57:30.362Z,99.99
2017-03-30T05:58:30.391Z,99.99
2017-03-30T05:59:30.415Z,99.99
2017-03-30T06:00:30.460Z,99.99
2017-03-30T06:01:30.488Z,99.99
2017-03-30T06:02:30.520Z,99.99
2017-03-30T06:03:30.550Z,99.99
2017-03-30T06:04:30.586Z,99.99
2017-03-30T06:05:30.623Z,99.99
2017-03-30T06:06:30.645Z,99.99
2017-03-30T06:07:30.682Z,99.99
2017-03-30T06:08:30.714Z,99.99
2017-03-30T06:09:30.743Z,99.99
2017-03-30T06:10:30.779Z,99.99
2017-03-30T06:11:30.798Z,99.99
2017-03-30T06:12:30.836Z,99.99
2017-03-30T06:13:30.877Z,99.99
2017-03-30T06:14:30.904Z,99.99
2017-03-30T06:15:30.930Z,99.99
2017-03-30T06:16:30.968Z,99.99
2017-03-30T06:17:30.998Z,99.99
2017-03-30T06:18:31.025Z,99.99
2017-03-30T06:19:31.067Z,99.99
2017-03-30T06:20:31.084Z,99.99
2017-03-30T06:21:31.117Z,99.99
2017-03-30T06:22:31.140Z,99.99
2017-03-30T06:23:31.194Z,99.99
2017-03-30T06:24:31.217Z,99.99
2017-03-30T06:25:31.251Z,99.99
2017-03-30T06:26:31.285Z,99.99
2017-03-30T06:27:31.317Z,99.99
2017-03-30T06:28:31.348Z,99.99
2017-03-30T06:29:31.385Z,99.99
2017-03-30T06:30:31.415Z,99.99
2017-03-30T06:31:31.449Z,99.99
2017-03-30T06:32:31.473Z,99.99
2017-03-30T06:33:31.513Z,99.99
2017-03-30T06:34:31.534Z,99.99
2017-03-30T06:35:31.574Z,99.99
2017-03-30T06:36:31.610Z,99.99
2017-03-30T06:37:31.640Z,99.99
2017-03-30T06:38:31.667Z,99.99
2017-03-30T06:39:31.702Z,99.99
2017-03-30T06:40:31.733Z,99.99
2017-03-30T06:41:31.769Z,99.99
2017-03-30T06:42:31.785Z,99.99
2017-03-30T06:43:31.827Z,99.99
2017-03-30T06:44:31.865Z,99.99
2017-03-30T06:45:31.911Z,99.99
2017-03-30T06:46:31.925Z,99.99
2017-03-30T06:47:31.962Z,99.99
2017-03-30T06:48:31.995Z,99.99
2017-03-30T06:49:32.026Z,99.99
2017-03-30T06:50:32.066Z,99.99
2017-03-30T06:51:32.088Z,99.99
2017-03-30T06:52:32.125Z,99.99
2017-03-30T06:53:32.149Z,99.99
2017-03-30T06:54:32.186Z,99.99
2017-03-30T06:55:32.220Z,99.99
2017-03-30T06:56:32.249Z,99.99
2017-03-30T06:57:32.289Z,99.99
2017-03-30T06:58:32.315Z,99.99
2017-03-30T06:59:32.352Z,99.99
2017-03-30T07:00:32.386Z,99.99
2017-03-30T07:01:32.418Z,99.99
2017-03-30T07:02:32.448Z,99.99
2017-03-30T07:03:32.486Z,99.99
2017-03-30T07:04:32.518Z,99.99
2017-03-30T07:05:32.548Z,99.99
2017-03-30T07:06:32.578Z,99.99
2017-03-30T07:07:32.611Z,99.99
2017-03-30T07:08:32.647Z,99.99
2017-03-30T07:09:32.684Z,99.99
2017-03-30T07:10:32.715Z,99.99
2017-03-30T07:11:32.741Z,99.99
2017-03-30T07:12:32.772Z,99.99
2017-03-30T07:13:32.813Z,99.99
2017-03-30T07:14:32.837Z,99.99
2017-03-30T07:15:32.963Z,99.99
2017-03-30T07:16:32.908Z,99.99
2017-03-30T07:17:32.937Z,99.99
2017-03-30T07:18:32.973Z,99.99
2017-03-30T07:19:33.000Z,99.99
2017-03-30T07:20:33.013Z,99.99
2017-03-30T07:21:33.076Z,99.99
2017-03-30T07:22:33.103Z,99.99
2017-03-30T07:23:33.135Z,99.99
2017-03-30T07:24:33.169Z,99.99
2017-03-30T07:25:33.198Z,99.99
2017-03-30T07:26:33.220Z,99.99
2017-03-30T07:27:33.264Z,99.99
2017-03-30T07:28:33.299Z,99.99
2017-03-30T07:29:33.324Z,99.99
2017-03-30T07:30:33.373Z,99.99
2017-03-30T07:31:33.409Z,99.99
2017-03-30T07:32:33.425Z,99.99
2017-03-30T07:33:33.459Z,99.99
2017-03-30T07:34:33.497Z,99.99
2017-03-30T07:35:33.527Z,99.99
2017-03-30T07:36:33.564Z,99.99
2017-03-30T07:37:33.595Z,99.99
2017-03-30T07:38:33.628Z,99.99
2017-03-30T07:39:33.662Z,99.99
2017-03-30T07:40:33.692Z,99.99
2017-03-30T07:41:33.738Z,99.99
2017-03-30T07:42:33.757Z,99.99
2017-03-30T07:43:33.798Z,99.99
2017-03-30T07:44:33.825Z,99.99
2017-03-30T07:45:33.858Z,99.99
2017-03-30T07:46:33.893Z,99.99
2017-03-30T07:47:33.925Z,99.99
2017-03-30T07:48:33.959Z,99.99
2017-03-30T07:49:33.989Z,99.99
2017-03-30T07:50:34.054Z,99.99
2017-03-30T07:51:34.063Z,99.99
2017-03-30T07:52:34.093Z,99.99
2017-03-30T07:53:34.125Z,99.99
2017-03-30T07:54:34.158Z,99.99
2017-03-30T07:55:34.186Z,99.99
2017-03-30T07:56:34.228Z,99.99
2017-03-30T07:57:34.258Z,99.99
2017-03-30T07:58:34.289Z,99.99
2017-03-30T07:59:34.350Z,99.99
2017-03-30T08:00:34.343Z,99.99
2017-03-30T08:01:34.389Z,99.99
2017-03-30T08:02:34.421Z,99.99
2017-03-30T08:03:34.452Z,99.99
2017-03-30T08:04:34.485Z,99.99
2017-03-30T08:05:34.524Z,99.99
2017-03-30T08:06:34.552Z,99.99
2017-03-30T08:07:34.584Z,99.99
2017-03-30T08:08:34.621Z,99.99
2017-03-30T08:09:34.651Z,99.99
2017-03-30T08:10:34.686Z,99.99
2017-03-30T08:11:34.724Z,99.99
2017-03-30T08:12:34.743Z,99.99
2017-03-30T08:13:34.782Z,99.99
2017-03-30T08:14:34.822Z,99.99
2017-03-30T08:15:34.853Z,99.99
2017-03-30T08:16:34.883Z,99.99
2017-03-30T08:17:34.914Z,99.99
2017-03-30T08:18:34.952Z,99.99
2017-03-30T08:19:34.978Z,99.99
2017-03-30T08:20:35.018Z,99.99
2017-03-30T08:21:35.029Z,99.99
2017-03-30T08:22:35.076Z,99.99
2017-03-30T08:23:35.112Z,99.99
2017-03-30T08:24:35.139Z,99.99
2017-03-30T08:25:35.164Z,99.99
2017-03-30T08:26:35.208Z,99.99
2017-03-30T08:27:35.240Z,99.99
2017-03-30T08:28:35.275Z,99.99
2017-03-30T08:29:35.310Z,99.99
2017-03-30T08:30:35.337Z,99.99
2017-03-30T08:31:35.371Z,99.99
2017-03-30T08:32:35.411Z,99.99
2017-03-30T08:33:35.458Z,99.99
2017-03-30T08:34:35.469Z,99.99
2017-03-30T08:35:35.506Z,99.99
2017-03-30T08:36:35.567Z,99.99
2017-03-30T08:37:35.566Z,99.99
2017-03-30T08:38:35.601Z,99.99
2017-03-30T08:39:35.636Z,99.99
2017-03-30T08:40:35.672Z,99.99
2017-03-30T08:41:35.700Z,99.99
2017-03-30T08:42:35.732Z,99.99
2017-03-30T08:43:35.768Z,99.99
2017-03-30T08:44:35.798Z,99.99
2017-03-30T08:45:35.837Z,99.99
2017-03-30T08:46:35.867Z,99.99
2017-03-30T08:47:35.894Z,99.99
2017-03-30T08:48:35.933Z,99.99
2017-03-30T08:49:35.965Z,99.99
2017-03-30T08:50:35.981Z,99.99
2017-03-30T08:51:36.027Z,99.99
2017-03-30T08:52:36.062Z,99.99
2017-03-30T08:53:36.093Z,99.99
2017-03-30T08:54:36.130Z,99.99
2017-03-30T08:55:36.160Z,99.99
2017-03-30T08:56:36.192Z,99.99
2017-03-30T08:57:36.226Z,99.99
2017-03-30T08:58:36.259Z,99.99
2017-03-30T08:59:36.289Z,99.99
2017-03-30T09:00:36.321Z,99.99
2017-03-30T09:01:36.398Z,99.99
2017-03-30T09:02:36.391Z,99.99
2017-03-30T09:03:36.412Z,99.99
2017-03-30T09:04:36.461Z,99.99
2017-03-30T09:05:36.482Z,99.99
2017-03-30T09:06:36.527Z,99.99
2017-03-30T09:07:36.586Z,99.99
2017-03-30T09:08:36.588Z,99.99
2017-03-30T09:09:36.611Z,99.99
2017-03-30T09:10:36.757Z,99.99
2017-03-30T09:11:36.693Z,99.99
2017-03-30T09:12:36.727Z,99.99
2017-03-30T09:13:36.756Z,99.99
2017-03-30T09:14:36.790Z,99.99
2017-03-30T09:15:36.815Z,99.99
2017-03-30T09:16:36.857Z,99.99
2017-03-30T09:17:36.891Z,99.99
2017-03-30T09:18:36.929Z,99.38
2017-03-30T09:19:36.975Z,98.24
2017-03-30T09:20:36.990Z,98.28
2017-03-30T09:21:37.030Z,96.84
2017-03-30T09:22:37.054Z,96.51
2017-03-30T09:23:37.097Z,96.22
2017-03-30T09:24:37.136Z,95.65
2017-03-30T09:25:37.152Z,95.17
2017-03-30T09:26:37.201Z,95.17
2017-03-30T09:27:37.233Z,94.4
2017-03-30T09:28:37.273Z,94.5
2017-03-30T09:29:37.304Z,94.89
2017-03-30T09:30:37.341Z,94.5
2017-03-30T09:31:37.364Z,94.89
2017-03-30T09:32:37.410Z,95.46
2017-03-30T09:33:37.445Z,94.93
2017-03-30T09:34:37.486Z,95.22
2017-03-30T09:35:37.509Z,95.6
2017-03-30T09:36:37.551Z,96.08
2017-03-30T09:37:37.580Z,96.08
2017-03-30T09:38:37.616Z,96.18
2017-03-30T09:39:37.658Z,96.08
2017-03-30T09:40:37.693Z,96.37
2017-03-30T09:41:37.720Z,96.99
2017-03-30T09:42:37.746Z,96.61
2017-03-30T09:43:37.794Z,96.37
2017-03-30T09:44:37.829Z,96.66
2017-03-30T09:45:37.862Z,96.27
2017-03-30T09:46:37.896Z,95.98
2017-03-30T09:47:37.930Z,96.18
2017-03-30T09:48:37.954Z,95.26
2017-03-30T09:49:37.999Z,95.26
2017-03-30T09:50:38.282Z,94.12
2017-03-30T09:51:38.067Z,93.88
2017-03-30T09:52:38.109Z,92.82
2017-03-30T09:53:38.142Z,91.57
2017-03-30T09:54:38.177Z,91.42
2017-03-30T09:55:38.207Z,90.75
2017-03-30T09:56:38.246Z,89.75
2017-03-30T09:57:38.285Z,89.46
2017-03-30T09:58:38.319Z,88.88
2017-03-30T09:59:38.350Z,88.06
2017-03-30T10:00:38.386Z,86.95
2017-03-30T10:01:38.424Z,85.41
2017-03-30T10:02:38.455Z,84.84
2017-03-30T10:03:38.488Z,85.03
2017-03-30T10:04:38.532Z,84.11
2017-03-30T10:05:38.577Z,84.3
2017-03-30T10:07:07.934Z,84.5
2017-03-30T10:07:41.412Z,84.4
2017-03-30T10:08:41.441Z,85.03
2017-03-30T10:09:41.474Z,85.8
2017-03-30T10:10:41.524Z,85.89
2017-03-30T10:11:41.557Z,86.52
2017-03-30T10:12:41.597Z,86.14
2017-03-30T10:13:41.624Z,86.43
2017-03-30T10:14:41.668Z,86.43
2017-03-30T10:15:41.705Z,87.01
2017-03-30T10:16:41.737Z,87.01
2017-03-30T10:17:41.775Z,86.52
2017-03-30T10:18:41.791Z,85.95
2017-03-30T10:19:41.850Z,85.47
2017-03-30T10:20:41.859Z,85.71
2017-03-30T10:21:41.915Z,85.03
2017-03-30T10:22:41.939Z,84.45
2017-03-30T10:23:41.967Z,83.44
2017-03-30T10:24:42.008Z,82.48
2017-03-30T10:25:42.070Z,81.75
2017-03-30T10:26:42.100Z,81.37
2017-03-30T10:27:42.147Z,80.98
2017-03-30T10:28:42.173Z,81.75
2017-03-30T10:29:42.221Z,82.19
2017-03-30T10:30:42.252Z,82.29
2017-03-30T10:31:42.286Z,82.29
2017-03-30T10:32:42.319Z,82.29
2017-03-30T10:33:42.364Z,81.99
2017-03-30T10:34:42.396Z,81.65
2017-03-30T10:35:42.420Z,80.88
2017-03-30T10:36:42.470Z,81.17
2017-03-30T10:37:42.511Z,80.69
2017-03-30T10:38:42.544Z,80.75
2017-03-30T10:39:42.585Z,81.04
2017-03-30T10:40:42.604Z,81.04
2017-03-30T10:41:42.664Z,81.81
2017-03-30T10:42:42.701Z,82.24
2017-03-30T10:43:42.723Z,83.36
2017-03-30T10:44:42.767Z,84.56
2017-03-30T10:45:42.787Z,86
2017-03-30T10:46:42.837Z,86.72
2017-03-30T10:47:42.873Z,87.84
2017-03-30T10:48:42.916Z,88.22
2017-03-30T10:49:42.946Z,88.98
2017-03-30T10:50:42.981Z,88.89
2017-03-30T10:51:43.023Z,88.7
2017-03-30T10:52:43.036Z,88.79
2017-03-30T10:53:43.089Z,89.47
2017-03-30T10:54:43.126Z,89.8
2017-03-30T10:55:43.160Z,89.8
2017-03-30T10:56:43.209Z,89.71
2017-03-30T10:57:43.233Z,90.09
2017-03-30T10:58:43.273Z,89.9
2017-03-30T10:59:43.313Z,89.47
2017-03-30T11:00:43.340Z,88.6
2017-03-30T11:01:43.379Z,88.41
2017-03-30T11:02:43.414Z,88.45
2017-03-30T11:03:43.432Z,87.98
2017-03-30T11:04:43.484Z,88.07
2017-03-30T11:05:43.520Z,88.35
2017-03-30T11:06:43.560Z,87.98
2017-03-30T11:07:43.591Z,87.3
2017-03-30T11:08:43.630Z,86.38
2017-03-30T11:09:43.670Z,85.66
2017-03-30T11:10:43.700Z,84.26
2017-03-30T11:11:43.731Z,82.86
2017-03-30T11:12:43.771Z,82.09
2017-03-30T11:13:43.815Z,81.32
2017-03-30T11:14:43.830Z,80.3
2017-03-30T11:15:43.876Z,78.33
2017-03-30T11:16:43.925Z,76.92
2017-03-30T11:17:43.926Z,76.09
2017-03-30T11:18:43.971Z,75.8
2017-03-30T11:19:44.017Z,75.9
2017-03-30T11:20:44.065Z,76.96
2017-03-30T11:21:44.102Z,77.11
2017-03-30T11:22:44.132Z,77.94
2017-03-30T11:23:44.169Z,78.96
2017-03-30T11:24:44.212Z,80.75
2017-03-30T11:25:44.247Z,81.67
2017-03-30T11:26:44.285Z,82.68
2017-03-30T11:27:44.325Z,84.08
2017-03-30T11:28:44.358Z,85.42
2017-03-30T11:29:44.392Z,86.05
2017-03-30T11:30:44.429Z,86.82
2017-03-30T11:31:44.461Z,87.55
2017-03-30T11:32:44.494Z,88.12
2017-03-30T11:33:44.515Z,88.31
2017-03-30T11:34:44.575Z,88.41
2017-03-30T11:35:44.604Z,89.71
2017-03-30T11:36:44.627Z,90.57
2017-03-30T11:37:44.660Z,91.24
2017-03-30T11:38:44.719Z,91.63
2017-03-30T11:39:44.753Z,93.06
2017-03-30T11:40:44.785Z,94.35
2017-03-30T11:41:44.827Z,94.89
2017-03-30T11:42:44.858Z,95.22
2017-03-30T11:43:44.898Z,95.31
2017-03-30T11:44:44.927Z,95.03
2017-03-30T11:45:44.967Z,96.08
2017-03-30T11:46:44.992Z,97.33
2017-03-30T11:47:45.038Z,99.19
2017-03-30T11:48:45.058Z,99.58
2017-03-30T11:49:45.103Z,99.99
2017-03-30T11:50:45.145Z,99.99
2017-03-30T11:51:45.190Z,99.99
2017-03-30T11:52:45.208Z,99.99
2017-03-30T11:53:45.232Z,99.99
2017-03-30T11:54:45.284Z,99.99
2017-03-30T11:55:45.321Z,99.99
2017-03-30T11:56:45.349Z,99.99
2017-03-30T11:57:45.371Z,99.99
2017-03-30T11:58:45.416Z,99.99
2017-03-30T11:59:45.423Z,99.99
2017-03-30T12:00:45.489Z,99.99
2017-03-30T12:01:45.531Z,99.99
2017-03-30T12:02:45.553Z,99.99
2017-03-30T12:03:45.593Z,99.77
2017-03-30T12:04:45.631Z,98.67
2017-03-30T12:05:45.666Z,97.09
2017-03-30T12:06:45.694Z,96.08
2017-03-30T12:07:45.736Z,94.01
2017-03-30T12:08:45.777Z,92.48
2017-03-30T12:09:45.804Z,91.28
2017-03-30T12:10:45.849Z,89.07
2017-03-30T12:11:45.885Z,87.86
2017-03-30T12:12:45.919Z,87.57
2017-03-30T12:13:45.949Z,86.52
2017-03-30T12:14:45.987Z,86.04
2017-03-30T12:15:46.013Z,85.65
2017-03-30T12:16:46.054Z,83.96
2017-03-30T12:17:46.100Z,82.23
2017-03-30T12:18:46.134Z,82.17
2017-03-30T12:19:46.171Z,81.94
2017-03-30T12:20:46.191Z,82.27
2017-03-30T12:21:46.281Z,81.6
2017-03-30T12:22:46.257Z,81.4
2017-03-30T12:23:46.319Z,81.12
2017-03-30T12:24:46.353Z,80.44
2017-03-30T12:25:46.389Z,80.25
2017-03-30T12:26:46.426Z,80.25
2017-03-30T12:27:46.469Z,80.5
2017-03-30T12:28:46.501Z,80.98
2017-03-30T12:29:46.535Z,80.98
2017-03-30T12:30:46.550Z,81.17
2017-03-30T12:31:46.641Z,80.98
2017-03-30T12:32:46.640Z,82.04
2017-03-30T12:33:46.677Z,81.65
2017-03-30T12:34:46.720Z,81.84
2017-03-30T12:35:46.749Z,81.84
2017-03-30T12:36:46.787Z,81.13
2017-03-30T12:37:46.815Z,81.23
2017-03-30T12:38:46.855Z,81.99
2017-03-30T12:39:46.898Z,82.29
2017-03-30T12:40:46.937Z,83.3
2017-03-30T12:41:46.972Z,83.93
2017-03-30T12:42:47.001Z,84.51
2017-03-30T12:43:47.047Z,85.08
2017-03-30T12:44:47.079Z,85.57
2017-03-30T12:45:47.096Z,85.71
2017-03-30T12:46:47.151Z,85.71
2017-03-30T12:47:47.191Z,85.91
2017-03-30T12:48:47.220Z,85.66
2017-03-30T12:49:47.303Z,85.85
2017-03-30T12:50:47.288Z,85.66
2017-03-30T12:51:47.331Z,85.75
2017-03-30T12:52:47.377Z,86.43
2017-03-30T12:53:47.403Z,86.33